Time;durP1;ratioP1;P1;durP2;ratioP2;P2;SDS_P1;SDS_P2;PMS_P1;PMS_P2;Temp;Humidity;BMP_temperature;BMP_pressure;BME280_temperature;BME280_humidity;BME280_pressure;Samples;Min_cycle;Max_cycle;Signal;HPM_P1;HPM_P2
2022/04/15 00:00:41;;;;;;;8.78;6.37;;;;;;;20.92;34.33;101276.09;1723074;83;21812;-61
2022/04/15 00:03:08;;;;;;;9.78;6.62;;;;;;;20.92;34.31;101279.68;1722958;82;21060;-61
2022/04/15 00:05:40;;;;;;;8.90;6.28;;;;;;;20.92;34.31;101276.91;1723367;83;20945;-61
2022/04/15 00:08:12;;;;;;;11.53;6.60;;;;;;;20.91;34.33;101280.83;1722781;81;20985;-61
2022/04/15 00:10:40;;;;;;;7.47;5.50;;;;;;;20.92;34.30;101278.30;1723067;82;21012;-61
2022/04/15 00:13:11;;;;;;;9.20;6.58;;;;;;;20.91;34.34;101272.53;1723223;82;21186;-61
2022/04/15 00:15:35;;;;;;;7.92;5.97;;;;;;;20.92;34.33;101270.56;1722406;81;20899;-61
2022/04/15 00:18:01;;;;;;;11.05;6.45;;;;;;;20.90;34.35;101269.51;1723269;83;20966;-61
2022/04/15 00:20:27;;;;;;;10.32;6.78;;;;;;;20.90;34.34;101268.13;1723235;81;20898;-61
2022/04/15 00:22:53;;;;;;;12.00;7.10;;;;;;;20.89;34.35;101259.56;1723102;82;20945;-61
2022/04/15 00:25:19;;;;;;;8.95;6.42;;;;;;;20.90;34.36;101262.59;1722992;83;21104;-61
2022/04/15 00:27:46;;;;;;;10.00;6.65;;;;;;;20.90;34.36;101264.53;1723205;82;21386;-61
2022/04/15 00:30:12;;;;;;;11.00;7.08;;;;;;;20.90;34.37;101257.06;1723025;83;20949;-61
2022/04/15 00:32:40;;;;;;;10.50;7.53;;;;;;;20.90;34.39;101257.63;1722976;82;20863;-61
2022/04/15 00:35:08;;;;;;;10.82;7.20;;;;;;;20.89;34.39;101251.83;1723312;83;20895;-61
2022/04/15 00:37:34;;;;;;;12.30;7.28;;;;;;;20.88;34.41;101255.71;1723179;83;21306;-61
2022/04/15 00:40:02;;;;;;;10.38;6.33;;;;;;;20.88;34.41;101255.71;1723109;82;21378;-60
2022/04/15 00:42:34;;;;;;;10.23;7.17;;;;;;;20.88;34.43;101251.56;1723434;83;21473;-61
2022/04/15 00:45:01;;;;;;;10.90;6.70;;;;;;;20.89;34.42;101261.51;1723183;82;21044;-60
2022/04/15 00:47:56;;;;;;;11.93;6.67;;;;;;;20.88;34.43;101259.86;1723307;83;20934;-61
2022/04/15 00:50:29;;;;;;;14.00;7.25;;;;;;;20.87;34.42;101255.48;1723245;81;21137;-61
2022/04/15 00:52:58;;;;;;;10.18;6.70;;;;;;;20.87;34.43;101263.22;1723175;83;21275;-61
2022/04/15 00:55:25;;;;;;;13.30;7.47;;;;;;;20.87;34.43;101252.16;1723284;83;21002;-61
2022/04/15 00:57:58;;;;;;;10.85;7.33;;;;;;;20.86;34.45;101260.19;1723260;83;20989;-61
2022/04/15 01:00:26;;;;;;;12.30;7.70;;;;;;;20.86;34.46;101257.98;1723401;83;21023;-61
2022/04/15 01:02:52;;;;;;;11.48;7.45;;;;;;;20.85;34.45;101255.78;1723159;83;21933;-61
2022/04/15 01:05:18;;;;;;;11.45;7.55;;;;;;;20.85;34.46;101255.78;1723288;83;21431;-60
2022/04/15 01:07:50;;;;;;;10.65;6.78;;;;;;;20.85;34.47;101248.04;1723527;81;21001;-61
2022/04/15 01:10:19;;;;;;;11.60;6.90;;;;;;;20.85;34.49;101255.78;1722624;81;21404;-61
2022/04/15 01:12:54;;;;;;;12.05;7.17;;;;;;;20.84;34.50;101251.37;1723488;82;21319;-60
2022/04/15 01:15:22;;;;;;;12.15;7.72;;;;;;;20.85;34.50;101257.72;1723022;82;21335;-60
2022/04/15 01:17:48;;;;;;;11.35;7.10;;;;;;;20.85;34.51;101250.80;1723343;83;21006;-60
2022/04/15 01:20:14;;;;;;;12.40;7.62;;;;;;;20.85;34.51;101254.95;1723155;83;20984;-61
2022/04/15 01:22:48;;;;;;;11.00;7.58;;;;;;;20.83;34.52;101252.52;1722904;82;20949;-61
2022/04/15 01:25:21;;;;;;;11.93;7.55;;;;;;;20.83;34.51;101252.52;1723379;83;20910;-60
2022/04/15 01:27:48;;;;;;;11.10;7.08;;;;;;;20.83;34.52;101260.81;1722900;82;21754;-61
2022/04/15 01:30:19;;;;;;;11.30;6.65;;;;;;;20.84;34.54;101249.16;1723437;82;21383;-60
2022/04/15 01:32:46;;;;;;;11.75;7.85;;;;;;;20.83;34.55;101255.84;1722944;81;21375;-60
2022/04/15 01:35:14;;;;;;;12.82;7.35;;;;;;;20.83;34.53;101249.75;1723160;83;20941;-61
2022/04/15 01:37:40;;;;;;;14.85;8.00;;;;;;;20.83;34.57;101251.14;1723051;82;21275;-61
2022/04/15 01:40:08;;;;;;;12.00;7.72;;;;;;;20.83;34.57;101242.84;1723324;81;21532;-61
2022/04/15 01:42:35;;;;;;;12.05;7.67;;;;;;;20.83;34.54;101243.40;1722798;82;20891;-60
2022/04/15 01:45:02;;;;;;;12.82;8.38;;;;;;;20.83;34.57;101243.40;1723210;83;20902;-60
2022/04/15 01:47:28;;;;;;;12.80;8.35;;;;;;;20.83;34.58;101237.31;1722852;81;20899;-61
2022/04/15 01:50:02;;;;;;;11.65;7.87;;;;;;;20.82;34.58;101230.13;1722817;82;20990;-61
2022/04/15 01:52:28;;;;;;;11.63;8.25;;;;;;;20.83;34.58;101224.05;1723384;81;21651;-61
2022/04/15 01:54:54;;;;;;;13.95;8.50;;;;;;;20.82;34.60;101221.84;1723021;83;20941;-61
2022/04/15 01:57:20;;;;;;;12.98;8.48;;;;;;;20.82;34.59;101218.25;1723168;83;20882;-61
2022/04/15 01:59:47;;;;;;;13.43;8.00;;;;;;;20.81;34.60;101217.42;1722964;82;21260;-61
2022/04/15 02:02:13;;;;;;;11.88;7.92;;;;;;;20.82;34.61;101208.56;1723403;83;20950;-61
2022/04/15 02:04:39;;;;;;;11.63;7.75;;;;;;;20.81;34.61;101213.84;1722827;83;21247;-61
2022/04/15 02:07:05;;;;;;;9.78;7.03;;;;;;;20.81;34.62;101210.52;1723158;81;21401;-61
2022/04/15 02:09:31;;;;;;;11.18;8.25;;;;;;;20.80;34.61;101208.87;1722960;83;20918;-61
2022/04/15 02:11:57;;;;;;;10.95;7.67;;;;;;;20.80;34.65;101204.72;1722952;81;20937;-61
2022/04/15 02:14:29;;;;;;;14.00;8.60;;;;;;;20.80;34.66;101201.95;1723241;82;20982;-61
2022/04/15 02:16:55;;;;;;;11.33;8.15;;;;;;;20.80;34.67;101206.66;1722773;83;21128;-61
2022/04/15 02:19:21;;;;;;;11.75;8.23;;;;;;;20.79;34.67;101197.55;1722878;82;20902;-61
2022/04/15 02:21:48;;;;;;;12.90;8.28;;;;;;;20.79;34.67;101206.43;1722940;83;21307;-61
2022/04/15 02:24:15;;;;;;;10.23;7.55;;;;;;;20.79;34.70;101204.45;1722974;83;20993;-61
2022/04/15 02:26:42;;;;;;;11.78;7.85;;;;;;;20.79;34.70;101207.22;1722784;83;21335;-61
2022/04/15 02:29:08;;;;;;;11.50;7.47;;;;;;;20.79;34.70;101203.66;1723527;82;21170;-61
2022/04/15 02:31:34;;;;;;;11.33;8.15;;;;;;;20.78;34.71;101204.23;1722923;83;21402;-61
2022/04/15 02:34:00;;;;;;;11.85;8.00;;;;;;;20.78;34.73;101205.61;1723098;82;20953;-61
2022/04/15 02:36:26;;;;;;;11.40;7.83;;;;;;;20.79;34.73;101198.92;1723044;82;20882;-61
2022/04/15 02:38:52;;;;;;;10.35;7.83;;;;;;;20.78;34.74;101202.84;1723302;83;22432;-61
2022/04/15 02:41:18;;;;;;;11.28;8.10;;;;;;;20.78;34.74;101197.31;1722921;83;21072;-61
2022/04/15 02:43:44;;;;;;;12.10;8.00;;;;;;;20.77;34.76;101195.67;1723226;83;20902;-61
2022/04/15 02:46:10;;;;;;;12.50;8.58;;;;;;;20.78;34.76;101193.72;1723355;83;21029;-61
2022/04/15 02:48:42;;;;;;;9.73;8.20;;;;;;;20.77;34.76;101194.28;1722774;81;20997;-61
2022/04/15 02:51:08;;;;;;;12.93;8.63;;;;;;;20.77;34.77;101194.28;1723194;83;20922;-61
2022/04/15 02:53:34;;;;;;;11.40;7.92;;;;;;;20.77;34.78;101194.84;1723117;83;21266;-61
2022/04/15 02:56:00;;;;;;;14.47;8.33;;;;;;;20.77;34.77;101201.20;1723102;83;21450;-61
2022/04/15 02:58:27;;;;;;;12.50;8.43;;;;;;;20.77;34.78;101191.52;1722908;82;20898;-61
2022/04/15 03:00:53;;;;;;;11.57;8.23;;;;;;;20.77;34.77;101196.23;1723216;83;20989;-61
2022/04/15 03:03:19;;;;;;;11.28;8.63;;;;;;;20.77;34.80;101198.44;1722817;81;20985;-61
2022/04/15 03:05:45;;;;;;;12.00;8.40;;;;;;;20.76;34.79;101195.41;1723377;83;21201;-61
2022/04/15 03:08:11;;;;;;;11.15;8.45;;;;;;;20.77;34.80;101194.84;1723278;82;20898;-61
2022/04/15 03:10:37;;;;;;;12.80;8.03;;;;;;;20.76;34.79;101190.44;1722975;82;20937;-61
2022/04/15 03:13:03;;;;;;;10.18;7.83;;;;;;;20.76;34.81;101196.79;1723176;83;20993;-61
2022/04/15 03:15:30;;;;;;;12.65;8.53;;;;;;;20.75;34.82;101189.61;1723198;82;21068;-61
2022/04/15 03:17:56;;;;;;;15.15;9.20;;;;;;;20.76;34.81;101194.58;1723028;83;21025;-61
2022/04/15 03:20:22;;;;;;;10.80;8.15;;;;;;;20.76;34.81;101191.81;1722684;82;20886;-61
2022/04/15 03:22:48;;;;;;;12.35;8.10;;;;;;;20.75;34.82;101192.38;1723324;83;20906;-61
2022/04/15 03:25:17;;;;;;;14.73;8.78;;;;;;;20.76;34.79;101197.34;1722826;81;20886;-61
2022/04/15 03:27:44;;;;;;;12.80;8.35;;;;;;;20.75;34.81;101192.97;1723191;82;20954;-61
2022/04/15 03:30:11;;;;;;;12.25;8.28;;;;;;;20.75;34.84;101191.00;1722706;83;21979;-61
2022/04/15 03:32:51;;;;;;;12.20;8.95;;;;;;;20.75;34.83;101199.87;1722909;81;20951;-61
2022/04/15 03:35:20;;;;;;;14.28;8.75;;;;;;;20.74;34.82;101192.15;1723146;82;20995;-61
2022/04/15 03:37:52;;;;;;;15.30;8.88;;;;;;;20.73;34.83;101189.13;1722656;81;20938;-61
2022/04/15 03:40:19;;;;;;;15.35;9.08;;;;;;;20.73;34.82;101193.27;1723257;83;21026;-60
2022/04/15 03:42:51;;;;;;;13.93;8.85;;;;;;;20.73;34.84;101191.88;1723021;82;21100;-60
2022/04/15 03:45:22;;;;;;;12.60;8.93;;;;;;;20.73;34.84;101197.97;1723033;82;20946;-61
2022/04/15 03:47:55;;;;;;;13.38;8.00;;;;;;;20.73;34.84;101193.27;1722997;82;21033;-61
2022/04/15 03:50:22;;;;;;;14.63;8.95;;;;;;;20.72;34.84;101191.62;1722781;81;21017;-61
2022/04/15 03:52:48;;;;;;;11.15;8.60;;;;;;;20.72;34.86;101190.80;1723007;81;21271;-61
2022/04/15 03:55:18;;;;;;;13.25;9.30;;;;;;;20.71;34.86;101186.42;1723242;83;21251;-61
2022/04/15 03:57:44;;;;;;;13.40;8.48;;;;;;;20.71;34.88;101188.59;1722487;81;21425;-61
2022/04/15 04:00:17;;;;;;;15.13;8.48;;;;;;;20.71;34.86;101189.19;1723129;83;21006;-61
2022/04/15 04:02:52;;;;;;;13.25;9.10;;;;;;;20.71;34.86;101189.19;1722905;81;20997;-60
2022/04/15 04:05:19;;;;;;;15.03;9.60;;;;;;;20.71;34.86;101181.69;1722528;82;21085;-61
2022/04/15 04:07:45;;;;;;;15.35;8.88;;;;;;;20.70;34.86;101184.22;1723550;83;21160;-60
2022/04/15 04:10:13;;;;;;;12.40;8.85;;;;;;;20.69;34.87;101182.57;1722990;82;20962;-61
2022/04/15 04:12:39;;;;;;;15.15;9.00;;;;;;;20.71;34.88;101185.04;1723209;82;20989;-61
2022/04/15 04:15:06;;;;;;;14.15;8.98;;;;;;;20.71;34.87;101191.36;1722818;81;21042;-60
2022/04/15 04:17:32;;;;;;;13.50;8.45;;;;;;;20.71;34.88;101193.33;1723501;83;20950;-60
2022/04/15 04:19:59;;;;;;;12.80;9.05;;;;;;;20.70;34.88;101186.16;1722935;82;21892;-60
2022/04/15 04:22:35;;;;;;;12.63;9.43;;;;;;;20.70;34.90;101189.75;1723163;82;20961;-61
2022/04/15 04:25:02;;;;;;;14.68;9.50;;;;;;;20.70;34.91;101188.36;1722960;83;20890;-60
2022/04/15 04:27:28;;;;;;;16.35;9.60;;;;;;;20.70;34.90;101191.12;1723137;82;20897;-60
2022/04/15 04:29:54;;;;;;;16.42;9.75;;;;;;;20.69;34.91;101191.42;1722959;82;21358;-61
2022/04/15 04:32:20;;;;;;;10.55;8.58;;;;;;;20.69;34.92;101195.02;1722740;83;21310;-61
2022/04/15 04:34:47;;;;;;;12.28;8.40;;;;;;;20.69;34.94;101195.58;1729977;82;20968;-61
2022/04/15 04:37:13;;;;;;;14.93;8.58;;;;;;;20.69;34.94;101193.63;1732045;81;20898;-61
2022/04/15 04:39:39;;;;;;;15.83;9.40;;;;;;;20.69;34.95;101195.02;1750089;81;20945;-61
2022/04/15 04:42:07;;;;;;;13.45;9.00;;;;;;;20.70;34.95;101201.36;1755267;81;21343;-61
2022/04/15 04:44:37;;;;;;;11.03;8.40;;;;;;;20.69;34.96;101201.10;1690284;84;21282;-61
2022/04/15 04:47:07;;;;;;;13.38;8.88;;;;;;;20.69;34.98;101203.87;1689904;84;21027;-60
2022/04/15 04:49:33;;;;;;;12.28;9.15;;;;;;;20.69;34.96;101203.31;1689614;84;21313;-60
2022/04/15 04:51:59;;;;;;;11.68;9.48;;;;;;;20.68;34.96;101203.05;1690262;84;20901;-60
2022/04/15 04:54:25;;;;;;;13.88;9.20;;;;;;;20.68;34.98;101201.66;1708449;83;21423;-61
2022/04/15 04:56:51;;;;;;;12.55;8.20;;;;;;;20.69;34.96;101203.31;1700846;84;21292;-60
2022/04/15 04:59:17;;;;;;;13.55;9.03;;;;;;;20.69;34.98;101206.08;1709497;83;20891;-61
2022/04/15 05:01:43;;;;;;;16.50;9.38;;;;;;;20.69;34.96;101210.22;1712769;82;21340;-61
2022/04/15 05:04:09;;;;;;;13.05;9.03;;;;;;;20.69;34.98;101209.40;1712484;83;21005;-61
2022/04/15 05:06:35;;;;;;;14.78;9.85;;;;;;;20.67;34.98;101208.31;1713731;82;21008;-61
2022/04/15 05:09:02;;;;;;;13.50;9.10;;;;;;;20.67;34.99;101216.61;1717828;80;21258;-61
2022/04/15 05:11:28;;;;;;;12.58;9.53;;;;;;;20.65;35.00;101210.58;1707751;82;21267;-61
2022/04/15 05:13:54;;;;;;;13.45;9.08;;;;;;;20.67;34.99;101214.41;1695741;82;20907;-61
2022/04/15 05:16:20;;;;;;;14.58;8.70;;;;;;;20.66;34.99;101217.76;1694588;84;21370;-61
2022/04/15 05:18:46;;;;;;;13.03;8.90;;;;;;;20.65;34.96;101211.97;1705855;83;21005;-61
2022/04/15 05:21:13;;;;;;;15.00;8.93;;;;;;;20.65;34.97;101214.73;1714706;83;21263;-61
2022/04/15 05:23:39;;;;;;;13.90;9.65;;;;;;;20.67;34.96;101214.41;1714088;81;21370;-61
2022/04/15 05:26:05;;;;;;;11.73;8.85;;;;;;;20.67;34.94;101212.45;1716140;83;20949;-61
2022/04/15 05:28:32;;;;;;;16.30;9.45;;;;;;;20.66;34.95;101212.79;1716689;82;21017;-61
2022/04/15 05:30:59;;;;;;;13.83;8.43;;;;;;;20.67;34.95;101212.45;1713923;81;21009;-60
2022/04/15 05:33:25;;;;;;;12.73;9.08;;;;;;;20.68;34.95;101207.75;1710155;83;21307;-60
2022/04/15 05:35:51;;;;;;;13.65;8.75;;;;;;;20.67;34.94;101208.88;1678453;84;21423;-61
2022/04/15 05:38:18;;;;;;;15.25;9.40;;;;;;;20.68;34.95;101212.72;1698629;83;20958;-60
2022/04/15 05:40:44;;;;;;;13.08;8.65;;;;;;;20.68;34.95;101210.52;1698487;83;20999;-61
2022/04/15 05:43:10;;;;;;;14.18;8.78;;;;;;;20.69;34.96;101210.22;1693723;82;20947;-61
2022/04/15 05:45:36;;;;;;;12.45;9.58;;;;;;;20.69;34.96;101206.63;1673517;85;20931;-61
2022/04/15 05:48:03;;;;;;;13.22;8.80;;;;;;;20.69;34.96;101208.02;1736811;81;20974;-61
2022/04/15 05:50:29;;;;;;;13.75;8.65;;;;;;;20.71;34.96;101203.01;1732642;80;20946;-60
2022/04/15 05:52:56;;;;;;;16.90;9.63;;;;;;;20.71;34.94;101210.72;1731151;80;21023;-61
2022/04/15 05:55:22;;;;;;;11.95;9.68;;;;;;;20.71;34.94;101203.80;1738325;81;21384;-61
2022/04/15 05:57:48;;;;;;;12.40;8.83;;;;;;;20.73;34.93;101207.66;1740216;81;20970;-61
2022/04/15 06:00:15;;;;;;;15.60;9.28;;;;;;;20.73;34.91;101201.56;1733251;80;20898;-61
2022/04/15 06:02:41;;;;;;;13.53;9.10;;;;;;;20.73;34.93;101208.48;1727271;82;20958;-61
2022/04/15 06:05:09;;;;;;;13.65;9.50;;;;;;;20.73;34.98;101201.56;1735319;82;21009;-60
2022/04/15 06:07:35;;;;;;;13.68;8.50;;;;;;;20.74;34.99;101205.15;1733742;82;21082;-61
2022/04/15 06:10:03;;;;;;;14.05;8.83;;;;;;;20.73;34.98;101199.36;1685749;83;21186;-61
2022/04/15 06:15:16;;;;;;;11.00;8.08;;;;;;;20.73;35.02;101200.18;1679864;81;21012;-60
2022/04/15 06:17:43;;;;;;;14.03;9.80;;;;;;;20.74;35.03;101199.62;1740269;81;21402;-61
2022/04/15 06:20:11;;;;;;;12.73;8.88;;;;;;;20.73;35.03;101197.41;1734967;81;21009;-60
2022/04/15 06:22:38;;;;;;;11.40;9.23;;;;;;;20.74;35.02;101201.00;1736791;80;21332;-61
2022/04/15 06:25:05;;;;;;;16.55;9.55;;;;;;;20.75;35.03;101198.50;1737771;81;20954;-60
2022/04/15 06:27:31;;;;;;;14.20;8.68;;;;;;;20.74;35.12;101194.91;1734950;82;20982;-60
2022/04/15 06:29:57;;;;;;;12.43;9.20;;;;;;;20.75;35.16;101199.29;1736301;82;20970;-60
2022/04/15 06:32:23;;;;;;;13.40;9.45;;;;;;;20.76;35.16;101202.31;1738505;81;21740;-61
2022/04/15 06:34:49;;;;;;;15.70;9.00;;;;;;;20.76;35.18;101194.02;1739677;81;21241;-61
2022/04/15 06:37:15;;;;;;;13.08;8.80;;;;;;;20.75;35.18;101194.35;1741416;81;20949;-61
2022/04/15 06:39:42;;;;;;;13.40;8.85;;;;;;;20.77;35.21;101201.76;1740875;82;20894;-60
2022/04/15 06:42:08;;;;;;;13.55;9.20;;;;;;;20.77;35.21;101202.58;1741665;81;20900;-61
2022/04/15 06:44:37;;;;;;;14.55;8.45;;;;;;;20.77;35.19;101203.96;1737525;81;21434;-61
2022/04/15 06:47:05;;;;;;;14.58;9.13;;;;;;;20.78;35.22;101200.08;1738636;80;21100;-59
2022/04/15 06:49:31;;;;;;;16.80;9.05;;;;;;;20.78;35.24;101195.93;1733478;82;21025;-59
2022/04/15 06:51:57;;;;;;;11.00;8.95;;;;;;;20.78;35.27;101199.25;1738672;82;21360;-59
2022/04/15 06:54:23;;;;;;;14.40;8.35;;;;;;;20.79;35.31;101200.31;1740674;81;21061;-59
2022/04/15 06:56:49;;;;;;;13.90;9.28;;;;;;;20.79;35.29;101195.37;1732982;80;22218;-59
2022/04/15 06:59:15;;;;;;;13.83;8.05;;;;;;;20.79;35.29;101199.52;1739127;81;22316;-59
2022/04/15 07:01:41;;;;;;;13.53;9.30;;;;;;;20.80;35.33;101199.19;1739594;82;21046;-59
2022/04/15 07:04:08;;;;;;;13.85;8.73;;;;;;;20.79;35.35;101192.02;1739294;80;21375;-59
2022/04/15 07:06:35;;;;;;;14.55;7.97;;;;;;;20.81;35.42;101196.69;1728679;80;21001;-61
2022/04/15 07:09:02;;;;;;;13.53;8.38;;;;;;;20.81;35.48;101195.86;1728553;80;21397;-61
2022/04/15 07:11:28;;;;;;;13.62;9.10;;;;;;;20.83;35.52;101196.39;1733532;80;20996;-61
2022/04/15 07:13:54;;;;;;;14.10;8.58;;;;;;;20.84;35.54;101194.67;1736216;80;21004;-61
2022/04/15 07:16:20;;;;;;;10.70;8.45;;;;;;;20.86;35.56;101195.76;1733815;80;21267;-61
2022/04/15 07:18:46;;;;;;;12.73;8.80;;;;;;;20.87;35.61;101197.41;1733709;80;21265;-61
2022/04/15 07:21:12;;;;;;;13.83;8.35;;;;;;;20.88;35.64;101195.69;1721313;82;20985;-61
2022/04/15 07:23:38;;;;;;;12.90;8.75;;;;;;;20.89;35.66;101189.59;1702227;84;21722;-61
2022/04/15 07:26:04;;;;;;;13.93;9.43;;;;;;;20.91;35.66;101191.50;1696899;84;21053;-61
2022/04/15 07:28:30;;;;;;;13.65;8.53;;;;;;;20.92;35.71;101192.55;1688600;83;20942;-61
2022/04/15 07:30:57;;;;;;;11.65;8.10;;;;;;;20.93;35.79;101184.52;1701943;83;20894;-61
2022/04/15 07:33:23;;;;;;;14.73;8.00;;;;;;;20.94;35.81;101188.93;1694792;83;21073;-61
2022/04/15 07:35:49;;;;;;;12.60;8.53;;;;;;;20.96;35.82;101191.39;1694371;83;22453;-61
2022/04/15 07:38:15;;;;;;;15.23;8.03;;;;;;;20.97;35.83;101182.77;1707184;83;21037;-61
2022/04/15 07:40:41;;;;;;;14.58;9.05;;;;;;;20.99;35.77;101189.38;1707385;83;21072;-60
2022/04/15 07:43:09;;;;;;;14.40;9.18;;;;;;;20.97;35.76;101185.53;1686640;83;20910;-60
2022/04/15 07:45:35;;;;;;;13.18;9.70;;;;;;;20.97;35.81;101186.91;1681531;85;21048;-60
2022/04/15 07:48:01;;;;;;;11.53;8.60;;;;;;;20.97;35.79;101181.95;1689027;83;21778;-60
2022/04/15 07:50:27;;;;;;;12.40;9.05;;;;;;;20.96;35.76;101180.33;1698601;83;20973;-60
2022/04/15 07:52:58;;;;;;;15.63;8.75;;;;;;;20.94;35.84;101180.62;1685307;82;21054;-61
2022/04/15 07:55:25;;;;;;;16.30;9.20;;;;;;;20.94;35.83;101177.86;1678882;84;20958;-61
2022/04/15 07:57:52;;;;;;;13.10;9.05;;;;;;;20.93;35.85;101174.84;1701446;83;21334;-60
2022/04/15 08:00:20;;;;;;;12.25;8.80;;;;;;;20.93;35.82;101169.30;1699722;83;21179;-60
2022/04/15 08:02:47;;;;;;;17.20;9.58;;;;;;;20.94;35.82;101168.75;1717775;82;20973;-61
2022/04/15 08:05:13;;;;;;;13.22;8.93;;;;;;;20.93;35.82;101160.19;1718014;81;21492;-60
2022/04/15 08:07:39;;;;;;;15.38;8.40;;;;;;;20.92;35.85;101162.13;1695597;83;21000;-61
2022/04/15 08:10:07;;;;;;;14.65;9.13;;;;;;;20.94;35.83;101170.95;1710908;83;20961;-60
2022/04/15 08:12:33;;;;;;;12.25;8.93;;;;;;;20.94;35.84;101170.13;1698729;83;21071;-60
2022/04/15 08:15:00;;;;;;;12.47;8.75;;;;;;;20.94;35.81;101168.19;1698191;83;21425;-60
2022/04/15 08:17:26;;;;;;;14.50;8.95;;;;;;;20.93;35.81;101166.54;1703510;83;21047;-60
2022/04/15 08:19:52;;;;;;;15.60;9.68;;;;;;;20.94;35.79;101170.13;1691242;83;20897;-61
2022/04/15 08:22:18;;;;;;;15.58;9.50;;;;;;;20.94;35.78;101166.80;1686682;83;21099;-61
2022/04/15 08:24:45;;;;;;;12.40;8.53;;;;;;;20.94;35.83;101161.83;1698253;83;21127;-61
2022/04/15 08:27:17;;;;;;;14.45;8.40;;;;;;;20.93;35.84;101158.24;1683267;85;21518;-61
2022/04/15 08:29:44;;;;;;;13.80;9.30;;;;;;;20.95;35.83;101156.56;1744399;82;21511;-61
2022/04/15 08:32:10;;;;;;;14.28;9.30;;;;;;;20.94;35.81;101146.62;1743872;80;20957;-61
2022/04/15 08:34:36;;;;;;;11.95;8.88;;;;;;;20.94;35.84;101150.77;1725993;80;21138;-61
2022/04/15 08:37:04;;;;;;;15.90;9.63;;;;;;;20.94;35.86;101143.85;1743858;80;21136;-61
2022/04/15 08:39:30;;;;;;;12.55;8.80;;;;;;;20.94;35.85;101141.09;1754084;81;21347;-61
2022/04/15 08:41:56;;;;;;;12.73;8.48;;;;;;;20.93;35.88;101134.73;1754352;81;20894;-61
2022/04/15 08:44:22;;;;;;;11.40;8.18;;;;;;;20.94;35.85;101131.41;1723977;81;21386;-61
2022/04/15 08:46:49;;;;;;;13.32;8.85;;;;;;;20.95;35.87;101126.95;1728945;80;20981;-60
2022/04/15 08:49:19;;;;;;;16.50;8.95;;;;;;;20.96;35.85;101125.02;1703206;83;21876;-60
2022/04/15 08:51:47;;;;;;;12.43;8.80;;;;;;;20.96;35.82;101126.39;1703741;82;21361;-60
2022/04/15 08:54:13;;;;;;;12.93;9.10;;;;;;;20.96;35.81;101121.66;1683196;83;21396;-60
2022/04/15 08:56:39;;;;;;;13.60;8.75;;;;;;;20.96;35.80;101120.27;1711419;83;20914;-61
2022/04/15 08:59:06;;;;;;;12.40;9.20;;;;;;;20.96;35.78;101120.27;1702772;83;21064;-61
2022/04/15 09:01:32;;;;;;;15.35;8.78;;;;;;;20.97;35.76;101113.61;1717389;83;21602;-61
2022/04/15 09:03:58;;;;;;;13.25;9.35;;;;;;;20.97;35.83;101110.84;1713886;82;21148;-60
2022/04/15 09:06:32;;;;;;;14.33;9.28;;;;;;;21.00;35.88;101116.90;1714536;83;20944;-61
2022/04/15 09:09:11;;;;;;;12.15;8.90;;;;;;;21.01;35.89;101111.59;1697117;83;21005;-61
2022/04/15 09:11:38;;;;;;;12.30;9.28;;;;;;;21.03;35.86;101110.73;1715663;83;21508;-61
2022/04/15 09:14:12;;;;;;;15.18;10.18;;;;;;;21.02;35.83;101105.77;1716683;83;21099;-61
2022/04/15 09:16:45;;;;;;;13.65;9.50;;;;;;;21.01;35.81;101095.83;1713024;83;21032;-61
2022/04/15 09:19:12;;;;;;;13.53;9.08;;;;;;;21.01;35.79;101100.53;1715150;83;21377;-60
2022/04/15 09:21:39;;;;;;;14.87;9.98;;;;;;;21.01;35.80;101089.47;1717394;83;21044;-61
2022/04/15 09:24:07;;;;;;;14.78;9.23;;;;;;;21.01;35.80;101086.70;1717654;83;21120;-61
2022/04/15 09:26:33;;;;;;;12.65;9.38;;;;;;;21.00;35.79;101087.30;1713195;83;21081;-60
2022/04/15 09:28:59;;;;;;;12.55;8.80;;;;;;;21.01;35.78;101081.17;1712274;82;21121;-61
2022/04/15 09:31:25;;;;;;;12.07;9.63;;;;;;;21.02;35.80;101078.66;1700174;82;21044;-61
2022/04/15 09:34:00;;;;;;;13.30;9.40;;;;;;;21.03;35.81;101084.45;1711731;82;21028;-60
2022/04/15 09:36:38;;;;;;;11.55;8.78;;;;;;;21.03;35.82;101081.13;1713367;83;21049;-61
2022/04/15 09:39:14;;;;;;;15.30;8.45;;;;;;;21.05;35.87;101079.44;1692462;83;21143;-61
2022/04/15 09:41:57;;;;;;;11.97;8.60;;;;;;;21.04;35.77;101075.85;1670678;84;20942;-61
2022/04/15 09:44:31;;;;;;;13.53;8.60;;;;;;;21.05;35.65;101066.99;1699694;83;21067;-60
2022/04/15 09:47:04;;;;;;;12.95;8.23;;;;;;;21.06;35.47;101067.22;1686606;84;21069;-61
2022/04/15 09:49:36;;;;;;;9.78;6.53;;;;;;;21.04;35.37;101061.20;1700043;83;20959;-61
2022/04/15 09:52:04;;;;;;;10.32;6.83;;;;;;;21.04;35.21;101062.58;1680708;82;21128;-61
2022/04/15 09:54:31;;;;;;;9.53;7.55;;;;;;;21.04;34.97;101057.05;1701467;83;22043;-61
2022/04/15 09:56:58;;;;;;;11.10;7.30;;;;;;;21.03;34.85;101056.23;1692207;83;20969;-61
2022/04/15 09:59:28;;;;;;;13.93;7.05;;;;;;;21.02;34.67;101053.77;1744183;82;22144;-61
2022/04/15 10:01:57;;;;;;;10.63;6.33;;;;;;;21.02;34.56;101057.36;1749510;80;20985;-61
2022/04/15 10:04:24;;;;;;;11.40;7.75;;;;;;;21.02;34.49;101051.00;1743711;80;21659;-61
2022/04/15 10:06:51;;;;;;;13.13;7.90;;;;;;;21.03;34.52;101042.96;1748077;82;21322;-61
2022/04/15 10:09:17;;;;;;;12.82;7.67;;;;;;;21.04;34.55;101047.37;1747495;82;20993;-61
2022/04/15 10:11:45;;;;;;;11.15;7.90;;;;;;;21.04;34.51;101048.75;1744964;80;21041;-61
2022/04/15 10:14:12;;;;;;;9.78;6.62;;;;;;;21.04;34.63;101041.27;1745245;81;20953;-61
2022/04/15 10:16:40;;;;;;;12.85;6.80;;;;;;;21.05;34.28;101033.20;1730968;82;20981;-61
2022/04/15 10:19:07;;;;;;;9.85;6.92;;;;;;;21.05;34.39;101033.80;1718534;82;20977;-61
2022/04/15 10:21:35;;;;;;;10.80;6.97;;;;;;;21.09;34.42;101028.67;1742355;80;20984;-61
2022/04/15 10:24:01;;;;;;;7.42;5.70;;;;;;;21.11;34.45;101020.06;1716128;82;20953;-61
2022/04/15 10:26:43;;;;;;;9.05;5.53;;;;;;;21.12;34.18;101022.56;1732692;80;20945;-61
2022/04/15 10:29:09;;;;;;;10.15;5.87;;;;;;;21.11;33.98;101011.20;1732724;82;21099;-61
2022/04/15 10:31:45;;;;;;;9.90;5.28;;;;;;;21.12;33.83;101013.41;1706396;83;20997;-61
2022/04/15 10:34:14;;;;;;;8.15;5.42;;;;;;;21.10;33.52;101003.21;1690006;84;21018;-61
2022/04/15 10:36:45;;;;;;;9.58;6.08;;;;;;;21.09;33.44;101002.39;1676578;83;21009;-61
2022/04/15 10:39:14;;;;;;;9.08;5.75;;;;;;;21.08;33.22;100995.25;1706452;83;20993;-61
2022/04/15 10:41:50;;;;;;;9.08;5.45;;;;;;;21.08;33.17;100998.58;1690971;83;21269;-61
2022/04/15 10:44:40;;;;;;;7.85;5.87;;;;;;;21.07;33.04;100992.78;1699087;83;20989;-61
2022/04/15 10:47:19;;;;;;;9.68;6.08;;;;;;;21.05;33.02;100987.55;1704733;83;21024;-61
2022/04/15 10:50:06;;;;;;;8.23;6.55;;;;;;;21.04;33.08;100988.72;1679837;84;21597;-61
2022/04/15 10:52:34;;;;;;;10.82;6.83;;;;;;;21.06;33.12;100984.23;1687263;82;20937;-61
2022/04/15 10:55:03;;;;;;;8.53;6.35;;;;;;;21.05;33.08;100990.33;1684595;82;21182;-61
2022/04/15 10:57:41;;;;;;;8.83;6.37;;;;;;;21.05;33.16;100990.92;1687047;82;20891;-61
2022/04/15 11:03:23;;;;;;;9.95;5.95;;;;;;;21.07;33.38;100983.10;1679155;83;21541;-61
2022/04/15 11:05:54;;;;;;;10.30;6.15;;;;;;;21.08;33.38;100981.42;1680673;84;20937;-61
2022/04/15 11:08:21;;;;;;;10.20;6.42;;;;;;;21.10;33.33;100976.93;1694205;83;21193;-61
2022/04/15 11:10:57;;;;;;;10.58;5.80;;;;;;;21.11;33.32;100973.03;1710315;83;21307;-61
2022/04/15 11:13:47;;;;;;;9.33;6.00;;;;;;;21.11;33.30;100967.50;1697292;82;21378;-61
2022/04/15 11:16:13;;;;;;;8.70;5.45;;;;;;;21.12;33.22;100968.61;1688240;84;20914;-61
2022/04/15 11:18:56;;;;;;;9.30;5.65;;;;;;;21.13;33.16;100966.66;1682243;83;21097;-61
2022/04/15 11:21:23;;;;;;;8.38;5.87;;;;;;;21.13;33.12;100961.13;1717215;82;21051;-60
2022/04/15 11:23:52;;;;;;;9.00;5.37;;;;;;;21.14;33.09;100954.44;1732657;82;20997;-60
2022/04/15 11:26:19;;;;;;;8.63;5.42;;;;;;;21.15;33.05;100944.45;1737417;82;21021;-61
2022/04/15 11:28:48;;;;;;;8.78;5.87;;;;;;;21.15;33.08;100947.22;1723607;81;21054;-60